Tiempo atmosférico en la estación meteorológica de Munera, Albacete (918 m.)



Fecha
DESCASC
Temp. máxima en grados centígrados (hora)
DESCASC
Temp. mínima en grados centígrados (hora)
DESCASC
Temp. media en grados centígrados
DESCASC
Racha de viento máxima en m/sg (hora)
DESCASC
Velocidad máxima media en intervalos de 10 minutos(hora)
DESCASC
Precipitaciones diarias en mm
DESCASC
Precipitaciones de 00:00 a 06:00 en mm
DESCASC
Precipitaciones de 06:00 a 12:00 en mm
DESCASC
Precipitaciones de 12:00 a 18:00 en mm
DESCASC
Precipitaciones de 18:00 a 24:00 en mm
DESCASC
22-04-2019 -- (--) -- (--) -- -- (--) -- (--) -- -- -- 0 0
21-04-2019 8.1 (13:50) 5.3 (06:50) 6.7 7.22 (00:10) 3.06 (16:00) 5.4 0.4 0 1.2 3.8
20-04-2019 -- (--) -- (--) -- -- (--) -- (--) -- 26.6 -- 10.2 --
19-04-2019 -- (--) -- (--) -- -- (--) -- (--) -- 0 -- -- 21.8
18-04-2019 13 (00:00) 7.2 (00:00) 10.1 6.39 (07:20) 2.5 (15:10) 16.8 3 9.4 3.8 0.6
17-04-2019 22.1 (14:50) 7.3 (00:00) 14.7 10 (17:30) 4.17 (17:30) 0 0 0 0 0
16-04-2019 20.7 (17:10) 3.6 (00:00) 12.2 7.5 (20:20) 3.33 (18:40) 0 0 0 0 0
15-04-2019 23.9 (16:50) 6.8 (00:00) 15.3 11.67 (19:50) 5 (19:30) 0 0 0 0 0
14-04-2019 22 (18:00) 5.1 (00:00) 13.5 8.61 (15:50) 3.33 (15:40) 0 0 0 0 0
13-04-2019 18.5 (17:30) -1.2 (-00:0) 8.6 7.78 (13:50) 3.61 (13:50) 0 0 0 0 0
12-04-2019 14.6 (18:00) -2.2 (-00:0) 6.2 8.06 (14:20) 4.17 (16:30) 0 0 0 0 0
11-04-2019 13.7 (18:00) -0.7 (-00:0) 6.5 8.89 (16:10) 4.17 (13:40) 0.2 0.2 0 0 0
10-04-2019 -- (--) -- (--) -- -- (--) -- (--) -- -- -- 2.4 2.6
09-04-2019 11.7 (16:30) 3.8 (00:00) 7.7 -- (--) -- (--) -- 0 0 1 --
08-04-2019 -- (--) -- (--) -- -- (--) -- (--) -- -- 0.6 -- 8.2
07-04-2019 11.5 (15:30) 3.1 (00:00) 7.3 12.22 (16:20) 5.28 (15:30) 4.4 2.6 1.4 0.2 0.2
06-04-2019 8.7 (17:00) 1.4 (00:00) 5 14.44 (16:20) 5.56 (12:40) 4.2 1.6 0.4 1.4 0.8
05-04-2019 7.9 (10:40) 2 (00:00) 5 13.61 (13:40) 5.83 (15:40) 5.6 0 0.6 4.6 0.4
04-04-2019 -- (--) -- (--) -- -- (--) -- (--) -- 0 -- 0 0
03-04-2019 17.3 (17:00) 4.4 (00:00) 10.8 -- (--) -- (--) 0.2 0 0.2 0 0
02-04-2019 -- (--) -- (--) -- -- (--) -- (--) -- 0 -- -- 0.8
01-04-2019 -- (--) -- (--) -- -- (--) -- (--) -- 0 0 -- --
31-03-2019 7.8 (17:50) 4.5 (00:00) 6.2 6.39 (09:30) 2.78 (00:10) 9.6 0.4 8.2 0.4 0.6
30-03-2019 16.4 (16:00) 2.9 (00:00) 9.6 10.28 (16:10) 4.44 (13:40) 0 0 0 0 0
29-03-2019 14.1 (15:10) 0.3 (00:00) 7.2 10.28 (11:30) 4.17 (11:30) 0 0 0 0 0
28-03-2019 15.7 (14:40) -4.7 (-00:0) 5.5 10 (15:30) 3.89 (14:00) 0 0 0 0 0
27-03-2019 14.5 (16:50) -0.5 (-00:0) 7 9.72 (01:20) 3.89 (14:00) 0 0 0 0 0
26-03-2019 16.5 (15:30) -0.6 (-00:0) 7.9 12.22 (17:10) 5.28 (15:00) 0 0 0 0 0
25-03-2019 18.9 (16:10) -3.2 (-00:0) 7.8 8.06 (12:00) 3.33 (12:10) 0 0 0 0 0

Gráficas

Temp. máximas Temp. mínimas Temp. medias Precipitaciones Rachas de viento máximas Velocidades máximas media en intervalos de 10 minutos

Datos horarios

Fecha y hora oficial Temperatura (ºC) Velocidad del viento (km/h) Dirección del viento Racha (km/h) Dirección de racha Precipitación (mm) Presión (hPa) Tendencia (hPa) Humedad (%)
2019-04-23 23:00:00 -- -- -- -- -- -- -- -- --
2019-04-23 22:00:00 4.1 11 Sudoeste 28 Sudoeste 0.2 -- -- 91
2019-04-23 21:00:00 5.4 12 Oeste 30 Sudoeste 0.4 -- -- 84
2019-04-23 20:00:00 7.3 9 Sudoeste 32 Sudoeste 0 -- -- 76
2019-04-23 19:00:00 8.4 12 Sudoeste 44 Oeste 0 -- -- 73
2019-04-23 18:00:00 10.7 14 Sudoeste 37 Oeste 0 -- -- 60
2019-04-23 17:00:00 11.3 16 Sudoeste 36 Sudoeste 0 -- -- 64
2019-04-23 16:00:00 10 13 Sudoeste 39 Sudoeste 0 -- -- 80
2019-04-23 15:00:00 10.6 18 Sudoeste 43 Sudoeste 0 -- -- 75
2019-04-23 14:00:00 9.9 21 Sudoeste 40 Sudoeste 0.4 -- -- 82
2019-04-23 13:00:00 10.4 15 Sudoeste 35 Oeste 0 -- -- 85
2019-04-23 12:00:00 9.2 10 Sudoeste 42 Sudoeste 0.4 -- -- 92
2019-04-23 11:00:00 9.5 9 Sudoeste 30 Sudoeste 0 -- -- 91
2019-04-23 10:00:00 9 10 Sudoeste 36 Oeste 0 -- -- 90
2019-04-23 09:00:00 8.5 8 Sudoeste 26 Sudoeste 0 -- -- 92
2019-04-23 08:00:00 8 7 Sudoeste 24 Sur 0 -- -- 94
2019-04-23 07:00:00 7.9 10 Sudoeste 28 Sudoeste 0 -- -- 92
2019-04-23 06:00:00 8 11 Sudoeste 35 Sudoeste 0 -- -- 91
2019-04-23 05:00:00 7.8 11 Sudoeste 26 Sudoeste 0 -- -- 94
2019-04-23 04:00:00 7.8 9 Sudoeste 27 Sudoeste 0 -- -- 93
2019-04-23 03:00:00 8.4 9 Sudoeste 26 Sudoeste 0 -- -- 91
2019-04-23 02:00:00 9.1 10 Sudoeste 27 Sudoeste 0 -- -- 88
2019-04-23 01:00:00 8.4 8 Sudoeste 16 Sur 0 -- -- 92
2019-04-23 00:00:00 9 7 Sudoeste 20 Sudoeste 0 -- -- 90
2019-04-22 23:00:00 9.1 9 Sudoeste 18 Sudoeste 0 -- -- 90
2019-04-22 22:00:00 9.3 7 Sudoeste 19 Sudoeste 0 -- -- 89
2019-04-22 21:00:00 10.2 7 Sudoeste 15 Sur 0 -- -- 86
2019-04-22 20:00:00 11.5 4 Sudoeste 17 Sudoeste 0 -- -- 83
2019-04-22 19:00:00 11.7 7 Sudoeste 18 Sur 0 -- -- 84
2019-04-22 18:00:00 12.1 7 Sudoeste 22 Oeste 0 -- -- 76
2019-04-22 17:00:00 11.2 6 Oeste 21 Oeste 0 -- -- 83
2019-04-22 16:00:00 12.2 8 Oeste 24 Oeste 0 -- -- 76
2019-04-22 15:00:00 11.4 11 Oeste 24 Oeste 0 -- -- 78
2019-04-22 14:00:00 11.2 9 Noroeste 24 Norte 0 -- -- 80
2019-04-22 13:00:00 10.3 9 Noroeste 19 Noroeste 0 -- -- 84
2019-04-22 12:00:00 9.4 8 Oeste 17 Sudoeste 0 -- -- 92
2019-04-22 11:00:00 7.9 6 Noroeste 15 Noroeste 0 -- -- 100
2019-04-22 10:00:00 7 5 Noroeste 12 Noroeste 0 -- -- 100
2019-04-22 09:00:00 6.4 4 Noroeste 10 Noroeste 0 -- -- 100
2019-04-22 08:00:00 -- -- -- -- -- -- -- -- --
2019-04-22 07:00:00 -- -- -- -- -- -- -- -- --
2019-04-22 06:00:00 -- -- -- -- -- -- -- -- --
2019-04-22 05:00:00 6.3 7 Norte 15 Norte 0.4 -- -- 100
2019-04-22 04:00:00 6.4 4 Norte 9 Norte 0.8 -- -- 100
2019-04-22 03:00:00 6 2 Norte 5 Noroeste 1.2 -- -- 99
2019-04-22 02:00:00 -- -- -- -- -- -- -- -- --
2019-04-22 01:00:00 6.7 5 Norte 13 Norte 2.6 -- -- 100
2019-04-22 00:00:00 7 6 Norte 14 Norte 1 -- -- 100
2019-04-21 23:00:00 7.2 5 Norte 9 Norte 0.8 -- -- 100
2019-04-21 22:00:00 7.2 3 Norte 8 Norte 1 -- -- 100
2019-04-21 21:00:00 7.2 4 Norte 9 Noroeste 0.6 -- -- 99
2019-04-21 20:00:00 7.3 5 Norte 11 Norte 0.2 -- -- 98
2019-04-21 19:00:00 7.3 5 Norte 10 Norte 0.2 -- -- 96
2019-04-21 18:00:00 7.5 4 Nordeste 12 Norte 0.2 -- -- 95
2019-04-21 17:00:00 7.5 4 Nordeste 21 Norte 0.4 -- -- 96
2019-04-21 16:00:00 7.8 11 Nordeste 23 Nordeste 0.2 -- -- 92
2019-04-21 15:00:00 7.9 9 Nordeste 17 Nordeste 0.4 -- -- 92
2019-04-21 14:00:00 7.9 9 Nordeste 16 Nordeste 0 -- -- 88
2019-04-21 13:00:00 7.5 7 Nordeste 19 Nordeste 0 -- -- 86
2019-04-21 12:00:00 7 6 Nordeste 16 Nordeste 0 -- -- 87
2019-04-21 11:00:00 6.8 6 Nordeste 17 Nordeste 0 -- -- 87
2019-04-21 10:00:00 6 3 Nordeste 13 Nordeste 0 -- -- 92
2019-04-21 09:00:00 5.6 5 Nordeste 12 Nordeste 0 -- -- 93
2019-04-21 08:00:00 5.4 4 Nordeste 11 Nordeste 0 -- -- 95
2019-04-21 07:00:00 5.4 5 Nordeste 15 Nordeste 0 -- -- 96
2019-04-21 06:00:00 5.5 4 Nordeste 15 Nordeste 0 -- -- 94
2019-04-21 05:00:00 5.5 5 Nordeste 16 Este 0 -- -- 94
2019-04-21 04:00:00 5.9 6 Nordeste 13 Este 0.2 -- -- 94
2019-04-21 03:00:00 6.2 4 Nordeste 12 Nordeste 0.2 -- -- 93
2019-04-21 02:00:00 6.7 4 Nordeste 23 Este 0 -- -- 86
2019-04-21 01:00:00 7 9 Nordeste 26 Este 0 -- -- 83
2019-04-21 00:00:00 7.2 7 Este -- -- 0 -- -- 82
2019-04-20 23:00:00 7.2 4 Este 20 Este 0 -- -- 83
2019-04-20 22:00:00 7.4 5 Este 29 Nordeste 0 -- -- 83
2019-04-20 21:00:00 -- -- -- -- -- -- -- -- --
2019-04-20 20:00:00 8.1 8 Nordeste 29 Este 0 -- -- 85
2019-04-20 19:00:00 8.5 13 Nordeste 37 Este 0 -- -- 85
2019-04-20 18:00:00 8.1 11 Este 43 Nordeste 0.4 -- -- 92
2019-04-20 17:00:00 7.6 16 Nordeste 36 Nordeste 3.4 -- -- 92
2019-04-20 16:00:00 8 10 Nordeste 37 Este 3.6 -- -- 96
2019-04-20 15:00:00 8.2 9 Nordeste 37 Este 1 -- -- 93
2019-04-20 14:00:00 7.9 14 Este 44 Este 1.6 -- -- 91
2019-04-20 13:00:00 9.1 18 Este 48 Este 0.2 -- -- 83
2019-04-20 12:00:00 8.4 19 Este 57 Sudeste 0.4 -- -- 82
2019-04-20 11:00:00 8 16 Este 39 Este 1.6 -- -- 87
2019-04-20 10:00:00 -- -- -- -- -- -- -- -- --
2019-04-20 09:00:00 7.6 9 Este 30 Este 0.8 -- -- 89
2019-04-20 08:00:00 7.4 9 Nordeste 28 Este 0.2 -- -- 89
2019-04-20 07:00:00 7.4 9 Nordeste 41 Nordeste 1 -- -- 91
2019-04-20 06:00:00 7.1 17 Nordeste 44 Nordeste 2.4 -- -- 100
2019-04-20 05:00:00 6.5 6 Norte 25 Norte 0.8 -- -- 100
2019-04-20 04:00:00 6.5 9 Norte 19 Norte 4.4 -- -- 100
2019-04-20 03:00:00 6.1 11 Norte 21 Norte 7 -- -- 100
2019-04-20 02:00:00 6 7 Norte 12 Norte 6.6 -- -- 100
2019-04-20 01:00:00 5.9 3 Norte 7 Nordeste 5.4 -- -- 100
2019-04-20 00:00:00 6 4 Nordeste 11 Nordeste 1.6 -- -- 100
2019-04-19 23:00:00 -- -- -- -- -- -- -- -- --
2019-04-19 22:00:00 5.7 -- -- -- -- 4 -- -- 100
2019-04-19 21:00:00 5.7 2 Sudeste 6 Este 4.4 -- -- 99
2019-04-19 20:00:00 5.8 0 Calma 8 Este 4.8 -- -- 99
2019-04-19 19:00:00 -- -- -- -- -- -- -- -- --
2019-04-19 18:00:00 -- -- -- -- -- -- -- -- --
2019-04-19 17:00:00 -- -- -- -- -- -- -- -- --
2019-04-19 16:00:00 -- -- -- -- -- -- -- -- --
2019-04-19 15:00:00 -- -- -- -- -- -- -- -- --
2019-04-19 14:00:00 -- -- -- -- -- -- -- -- --
2019-04-19 13:00:00 -- -- -- -- -- -- -- -- --
2019-04-19 12:00:00 -- -- -- -- -- -- -- -- --
2019-04-19 11:00:00 -- -- -- -- -- -- -- -- --
2019-04-19 10:00:00 -- -- -- -- -- -- -- -- --
2019-04-19 09:00:00 -- -- -- -- -- -- -- -- --
2019-04-19 08:00:00 -- -- -- -- -- -- -- -- --
2019-04-19 07:00:00 -- -- -- -- -- -- -- -- --
2019-04-19 06:00:00 6.7 2 Sur 9 Sudoeste 0 -- -- 98
2019-04-19 05:00:00 7 4 Sur 10 Sudoeste 0 -- -- 98
2019-04-19 04:00:00 7 5 Sur 18 Sudoeste 0 -- -- 98
2019-04-19 03:00:00 6.9 5 Sudoeste 11 Oeste 0 -- -- 98
2019-04-19 02:00:00 7 5 Sudoeste 14 Sudoeste 0 -- -- 97
2019-04-19 01:00:00 7.5 6 Sudoeste 19 Sudoeste 0 -- -- 97
2019-04-19 00:00:00 7.9 6 Sudoeste 15 Sudoeste 0.2 -- -- 97
2019-04-18 23:00:00 8 0 Calma 8 Sur 0.2 -- -- 95
2019-04-18 22:00:00 8.4 3 Sur 7 Sur 0 -- -- 96
2019-04-18 21:00:00 8.6 0 Calma 10 Sudeste 0.2 -- -- 94
2019-04-18 20:00:00 9 5 Sudeste 11 Sudeste 0 -- -- 93
2019-04-18 19:00:00 9.6 4 Sudeste 12 Sudeste 0 -- -- 89
2019-04-18 18:00:00 9.8 4 Este 12 Este 0 -- -- 89
2019-04-18 17:00:00 9.2 3 Este 9 Este 0 -- -- 91
2019-04-18 16:00:00 8.5 3 Norte 19 Este 0 -- -- 92
2019-04-18 15:00:00 8.3 6 Este 14 Este 0.4 -- -- 93
2019-04-18 14:00:00 7.7 4 Sudoeste 10 Oeste 1.8 -- -- 96
2019-04-18 13:00:00 7.6 2 Oeste 10 Oeste 1.6 -- -- 96
2019-04-18 12:00:00 7.3 5 Oeste 15 Oeste 1.2 -- -- 94
2019-04-18 11:00:00 7.8 6 Sudoeste 19 Sudoeste 3.4 -- -- 94
2019-04-18 10:00:00 8.3 3 Sudoeste 10 Sudeste 1 -- -- 96
2019-04-18 09:00:00 8.1 4 Sudeste 15 Este 0 -- -- 97
2019-04-18 08:00:00 7.9 6 Nordeste 23 Este 0.8 -- -- 97
2019-04-18 07:00:00 9.1 4 Este 12 Nordeste 3 -- -- 96
2019-04-18 06:00:00 9.3 4 Sudeste 12 Sudeste 2.8 -- -- 95
2019-04-18 05:00:00 9.6 0 Calma 12 Este 0.2 -- -- 94
2019-04-18 04:00:00 9.7 3 Este 10 Este 0 -- -- 91
2019-04-18 03:00:00 10.2 3 Nordeste 14 Este 0 -- -- 88
2019-04-18 02:00:00 10.6 0 Calma 16 Sudeste 0 -- -- 87
2019-04-18 01:00:00 11.2 3 Nordeste 18 Este 0 -- -- 82
2019-04-18 00:00:00 13 5 Sudeste 12 Este 0 -- -- 69
2019-04-17 23:00:00 13.2 2 Sudeste 10 Este 0 -- -- 69
2019-04-17 22:00:00 13.7 5 Este 13 Nordeste 0 -- -- 66
2019-04-17 21:00:00 14.9 5 Sudeste 21 Sur 0 -- -- 63
2019-04-17 20:00:00 15.9 11 Sudeste 24 Sudeste 0 -- -- 61
2019-04-17 19:00:00 17.9 9 Sudeste 29 Sur 0 -- -- 56
2019-04-17 18:00:00 19.7 12 Sudeste 36 Sudeste 0 -- -- 51
2019-04-17 17:00:00 21.6 14 Sudeste 30 Sudeste 0 -- -- 43
2019-04-17 16:00:00 21.2 11 Sudeste 28 Sudeste 0 -- -- 47
2019-04-17 15:00:00 22 9 Sudeste 32 Sudeste 0 -- -- 44
2019-04-17 14:00:00 20.2 12 Este 29 Nordeste 0 -- -- 51
2019-04-17 13:00:00 18.7 9 Sudeste 24 Sudeste 0 -- -- 54
2019-04-17 12:00:00 16.6 9 Sudeste 23 Nordeste 0 -- -- 64
2019-04-17 11:00:00 14 9 Este 29 Sudeste 0 -- -- 71
2019-04-17 10:00:00 11.6 8 Este 29 Sudeste 0 -- -- 79
2019-04-17 09:00:00 9.1 9 Sudeste 23 Este 0 -- -- 89
2019-04-17 08:00:00 7.5 7 Sudeste 23 Sudeste 0 -- -- 93
2019-04-17 07:00:00 7.3 5 Sudeste 22 Sudeste 0 -- -- 93
2019-04-17 06:00:00 7.8 3 Este 16 Este 0 -- -- 93
2019-04-17 05:00:00 8.2 4 Este 14 Sur 0 -- -- 93
2019-04-17 04:00:00 8.5 4 Este 15 Este 0 -- -- 93
2019-04-17 03:00:00 9.2 4 Sudeste 21 Sudeste 0 -- -- 90
2019-04-17 02:00:00 9.7 4 Sudeste 22 Sudeste 0 -- -- 88
2019-04-17 01:00:00 10.7 9 Sudeste 20 Sudeste 0 -- -- 85
2019-04-17 00:00:00 11.6 9 Sudeste 25 Este 0 -- -- 81
2019-04-16 23:00:00 13 9 Sudeste 21 Sudeste 0 -- -- 76
2019-04-16 22:00:00 14.4 8 Sudeste 19 Sudeste 0 -- -- 68
2019-04-16 21:00:00 16.5 10 Sudeste 27 Sudeste 0 -- -- 58
2019-04-16 20:00:00 19.3 8 Este 23 Este 0 -- -- 39
2019-04-16 19:00:00 20.5 9 Este 26 Este 0 -- -- 35
2019-04-16 18:00:00 20.6 9 Este 24 Este 0 -- -- 34
2019-04-16 17:00:00 20.6 6 Este 24 Nordeste 0 -- -- 37
2019-04-16 16:00:00 19.9 8 Sudeste 20 Este 0 -- -- 38
2019-04-16 15:00:00 18.6 5 Sudeste 19 Este 0 -- -- 39
2019-04-16 14:00:00 17.3 7 Nordeste 17 Nordeste 0 -- -- 43
2019-04-16 13:00:00 16 4 Nordeste 15 Norte 0 -- -- 46
2019-04-16 12:00:00 14.3 5 Nordeste 15 Nordeste 0 -- -- 52
2019-04-16 11:00:00 12.9 8 Nordeste 17 Nordeste 0 -- -- 61
2019-04-16 10:00:00 10.6 2 Norte 9 Norte 0 -- -- 76
2019-04-16 09:00:00 6.1 0 Calma 6 Sur 0 -- -- 97
2019-04-16 08:00:00 3.6 3 Sur 5 Sur 0 -- -- 92
2019-04-16 07:00:00 4.6 2 Sudoeste 9 Sur 0 -- -- 89
2019-04-16 06:00:00 6.3 2 Sur 11 Noroeste 0 -- -- 84
2019-04-16 05:00:00 7.6 4 Oeste 14 Oeste 0 -- -- 85
2019-04-16 04:00:00 8.9 3 Sudoeste 18 Oeste 0 -- -- 80
2019-04-16 03:00:00 10.3 6 Noroeste 16 Noroeste 0 -- -- 78
2019-04-16 02:00:00 11.4 5 Noroeste 17 Oeste 0 -- -- 74
2019-04-16 01:00:00 12.4 6 Oeste 21 Oeste 0 -- -- 67
2019-04-16 00:00:00 13.2 5 Noroeste 30 Oeste 0 -- -- 65
2019-04-15 23:00:00 15 10 Oeste 28 Noroeste 0 -- -- 53
2019-04-15 22:00:00 16.2 10 Sudoeste 35 Sudoeste 0 -- -- 37
2019-04-15 21:00:00 17.7 13 Sudoeste 33 Sudoeste 0 -- -- 32
2019-04-15 20:00:00 20 14 Sudoeste 42 Oeste 0 -- -- 32
2019-04-15 19:00:00 21.9 16 Sudoeste 39 Sudoeste 0 -- -- 30
2019-04-15 18:00:00 23.4 14 Sudoeste 37 Oeste 0 -- -- 31
2019-04-15 17:00:00 23.9 15 Oeste 39 Sudoeste 0 -- -- 29
2019-04-15 16:00:00 23.8 15 Sudoeste 37 Oeste 0 -- -- 32
2019-04-15 15:00:00 23.2 14 Sudoeste 36 Oeste 0 -- -- 32
2019-04-15 14:00:00 22.6 13 Sudoeste 30 Sudoeste 0 -- -- 40
2019-04-15 13:00:00 20.9 9 Sudoeste 22 Sur 0 -- -- 47
2019-04-15 12:00:00 21.3 9 Sur 22 Sur 0 -- -- 46
2019-04-15 11:00:00 19.4 5 Sudeste 14 Sudeste 0 -- -- 55
2019-04-15 10:00:00 14.7 4 Sudeste 12 Sudeste 0 -- -- 76
2019-04-15 09:00:00 8.1 3 Sur 8 Sur 0 -- -- 99
2019-04-15 08:00:00 6.8 5 Sur 9 Sur 0 -- -- 96
2019-04-15 07:00:00 7.2 4 Sur 12 Sudoeste 0 -- -- 93
2019-04-15 06:00:00 8.3 3 Sur 9 Sur 0 -- -- 91
2019-04-15 05:00:00 9.1 4 Sur 9 Sur 0 -- -- 92
2019-04-15 04:00:00 9.2 4 Sur 8 Sur 0 -- -- 91
2019-04-15 03:00:00 9.4 5 Sur 9 Sudoeste 0 -- -- 91
2019-04-15 02:00:00 8.8 4 Sur 6 Sur 0 -- -- 91
2019-04-15 01:00:00 8.6 4 Sur 8 Sur 0 -- -- 89
2019-04-15 00:00:00 9.5 5 Sur 9 Sur 0 -- -- 86
2019-04-14 23:00:00 10.7 4 Sur 6 Sur 0 -- -- 80
2019-04-14 22:00:00 13.6 3 Oeste 10 Oeste 0 -- -- 70
2019-04-14 21:00:00 16.8 4 Oeste 13 Oeste 0 -- -- 59
2019-04-14 20:00:00 19.1 5 Sudoeste 22 Oeste 0 -- -- 53
2019-04-14 19:00:00 21.2 9 Oeste 22 Oeste 0 -- -- 47
2019-04-14 18:00:00 22 8 Oeste 24 Sudoeste 0 -- -- 44
2019-04-14 17:00:00 21.5 11 Oeste 30 Noroeste 0 -- -- 44
2019-04-14 16:00:00 20.7 10 Oeste 31 Noroeste 0 -- -- 47
2019-04-14 15:00:00 20.6 8 Oeste 22 Sudoeste 0 -- -- 46
2019-04-14 14:00:00 19.6 10 Sudoeste 22 Sudoeste 0 -- -- 47
2019-04-14 13:00:00 18.4 9 Sudoeste 25 Oeste 0 -- -- 49
2019-04-14 12:00:00 17.2 8 Oeste 19 Oeste 0 -- -- 51
2019-04-14 11:00:00 15.1 9 Sudoeste 17 Oeste 0 -- -- 57
2019-04-14 10:00:00 12.8 6 Sudoeste 17 Sudoeste 0 -- -- 63
2019-04-14 09:00:00 8.8 8 Sudoeste 16 Sudoeste 0 -- -- 75
2019-04-14 08:00:00 5.4 5 Sur 10 Sur 0 -- -- 85
2019-04-14 07:00:00 5.1 6 Sur 10 Sur 0 -- -- 84
2019-04-14 06:00:00 5.4 6 Sur 10 Sur 0 -- -- 82
2019-04-14 05:00:00 5.8 6 Sur 12 Sur 0 -- -- 80
2019-04-14 04:00:00 5.9 6 Sur 11 Sur 0 -- -- 80
2019-04-14 03:00:00 6.4 4 Sur 10 Sudoeste 0 -- -- 76
2019-04-14 02:00:00 9.1 5 Sudoeste 18 Oeste 0 -- -- 64
2019-04-14 01:00:00 9.3 5 Sudoeste 15 Sudoeste 0 -- -- 65
2019-04-14 00:00:00 10.3 4 Sudoeste 17 Sudoeste 0 -- -- 61
2019-04-13 23:00:00 6.7 4 Sudoeste 10 Sudoeste 0 -- -- 72
2019-04-13 22:00:00 8.5 4 Sur 8 Sur 0 -- -- 64
2019-04-13 21:00:00 12.8 0 Calma 14 Noroeste 0 -- -- 45
2019-04-13 20:00:00 16.2 6 Noroeste 20 Noroeste 0 -- -- 31
2019-04-13 19:00:00 17.7 9 Noroeste 23 Norte 0 -- -- 27
2019-04-13 18:00:00 18.3 9 Noroeste 26 Norte 0 -- -- 29
2019-04-13 17:00:00 17.8 13 Noroeste 25 Norte 0 -- -- 28
2019-04-13 16:00:00 17.5 9 Noroeste 22 Noroeste 0 -- -- 32
2019-04-13 15:00:00 17 10 Noroeste 25 Norte 0 -- -- 36
2019-04-13 14:00:00 16 9 Oeste 28 Norte 0 -- -- 40
2019-04-13 13:00:00 15 10 Noroeste 24 Oeste 0 -- -- 41
2019-04-13 12:00:00 14.4 10 Noroeste 25 Norte 0 -- -- 44
2019-04-13 11:00:00 13.3 9 Noroeste 19 Noroeste 0 -- -- 46
2019-04-13 10:00:00 9.7 4 Oeste 9 Oeste 0 -- -- 58
2019-04-13 09:00:00 1.1 3 Sur 8 Sur 0 -- -- 97
2019-04-13 08:00:00 -1.2 3 Sur 6 Sur 0 -- -- 94
2019-04-13 07:00:00 -0.8 3 Sur 9 Sur 0 -- -- 94
2019-04-13 06:00:00 -0.9 3 Sur 5 Sur 0 -- -- 92
2019-04-13 05:00:00 -0.4 2 Sur 9 Sudoeste 0 -- -- 91
2019-04-13 04:00:00 0.4 4 Sur 9 Sur 0 -- -- 90
2019-04-13 03:00:00 0.8 4 Sur 12 Sur 0 -- -- 88
2019-04-13 02:00:00 1.2 4 Sur 12 Sudoeste 0 -- -- 88
2019-04-13 01:00:00 1.5 5 Sur 11 Sur 0 -- -- 86
2019-04-13 00:00:00 2.2 5 Sur 10 Sur 0 -- -- 83
2019-04-12 23:00:00 3.5 6 Sur 10 Sur 0 -- -- 78
2019-04-12 22:00:00 5.8 4 Sur 7 Sudoeste 0 -- -- 68
2019-04-12 21:00:00 9.9 2 Norte 13 Oeste 0 -- -- 50
2019-04-12 20:00:00 13 8 Norte 22 Noroeste 0 -- -- 36
2019-04-12 19:00:00 14.3 10 Norte 26 Norte 0 -- -- 41
2019-04-12 18:00:00 14.6 9 Noroeste 29 Norte 0 -- -- 38
2019-04-12 17:00:00 14.1 14 Noroeste 29 Norte 0 -- -- 42
2019-04-12 16:00:00 13.3 14 Noroeste 29 Noroeste 0 -- -- 45
2019-04-12 15:00:00 12.9 13 Noroeste 29 Oeste 0 -- -- 49
2019-04-12 14:00:00 11.9 12 Noroeste 27 Noroeste 0 -- -- 57
2019-04-12 13:00:00 10.6 13 Norte 28 Noroeste 0 -- -- 58
2019-04-12 12:00:00 9.4 11 Norte 23 Noroeste 0 -- -- 59
2019-04-12 11:00:00 8.1 8 Noroeste 18 Noroeste 0 -- -- 67
2019-04-12 10:00:00 6 6 Noroeste 16 Noroeste 0 -- -- 75
2019-04-12 09:00:00 2.4 4 Noroeste 9 Noroeste 0 -- -- 96
2019-04-12 08:00:00 -2.1 0 Calma 4 Oeste 0 -- -- 97
2019-04-12 07:00:00 -2 3 Sur 6 Sur 0 -- -- 96
2019-04-12 06:00:00 -1.8 3 Sur 9 Sur 0 -- -- 96
2019-04-12 05:00:00 -1.5 4 Sur 9 Sur 0 -- -- 95
2019-04-12 04:00:00 -1.1 4 Sur 8 Sudoeste 0 -- -- 94
2019-04-12 03:00:00 -0.5 4 Sur 8 Sur 0 -- -- 93
2019-04-12 02:00:00 0.1 3 Sur 7 Sur 0 -- -- 92
2019-04-12 01:00:00 0.8 4 Sur 8 Sur 0 -- -- 89
2019-04-12 00:00:00 1.8 4 Sur 6 Sur 0 -- -- 85
2019-04-11 23:00:00 3.2 3 Sur 7 Sur 0 -- -- 80
2019-04-11 22:00:00 5.9 2 Sur 11 Noroeste 0 -- -- 69
2019-04-11 21:00:00 8.8 3 Noroeste 15 Noroeste 0 -- -- 55
2019-04-11 20:00:00 11 4 Noroeste 15 Noroeste 0 -- -- 48
2019-04-11 19:00:00 11.7 10 Noroeste 27 Oeste 0 -- -- 46
2019-04-11 18:00:00 13.7 14 Noroeste 31 Noroeste 0 -- -- 43
2019-04-11 17:00:00 12.7 13 Norte 32 Noroeste 0 -- -- 49
2019-04-11 16:00:00 12.6 12 Noroeste 28 Noroeste 0 -- -- 52
2019-04-11 15:00:00 11.7 11 Noroeste 28 Norte 0 -- -- 54
2019-04-11 14:00:00 10.7 15 Norte 30 Norte 0 -- -- 59
2019-04-11 13:00:00 10 14 Norte 28 Noroeste 0 -- -- 69
2019-04-11 12:00:00 7.8 12 Noroeste 24 Noroeste 0 -- -- 78
2019-04-11 11:00:00 6.3 10 Noroeste 21 Noroeste 0 -- -- 83
2019-04-11 10:00:00 4.9 9 Noroeste 14 Noroeste 0 -- -- 87
2019-04-11 09:00:00 2.8 6 Noroeste 16 Oeste 0 -- -- 100
2019-04-11 08:00:00 -0.6 2 Oeste 11 Oeste 0 -- -- 99
2019-04-11 07:00:00 -0.5 2 Oeste 8 Noroeste 0 -- -- 99
2019-04-11 06:00:00 -0.6 0 Calma 4 Noroeste 0 -- -- 98
2019-04-11 05:00:00 0 2 Sur 8 Oeste 0 -- -- 98
2019-04-11 04:00:00 0.4 2 Oeste 6 Noroeste 0.2 -- -- 97
2019-04-11 03:00:00 1.6 2 Sudoeste 9 Oeste 0 -- -- 96
2019-04-11 02:00:00 3.4 0 Calma 13 Sudoeste 0 -- -- 98
2019-04-11 01:00:00 2.1 2 Oeste 9 Oeste 0 -- -- 97
2019-04-11 00:00:00 2.8 4 Sudoeste 8 Sur 0 -- -- 96
2019-04-10 23:00:00 3.9 2 Sudoeste 8 Noroeste 0 -- -- 95
2019-04-10 22:00:00 4.9 5 Oeste 14 Sudoeste 0 -- -- 94
2019-04-10 21:00:00 5.6 0 Calma 8 Noroeste 0.2 -- -- 91
2019-04-10 20:00:00 5.9 3 Oeste 28 Norte 2.2 -- -- 91
2019-04-10 19:00:00 9.6 9 Oeste 31 Oeste 0.2 -- -- 71
2019-04-10 18:00:00 10.3 12 Oeste 39 Noroeste 0.6 -- -- 70
2019-04-10 17:00:00 9.7 11 Oeste 32 Oeste 0 -- -- 67
2019-04-10 16:00:00 9.5 8 Oeste 23 Oeste 0.2 -- -- 78
2019-04-10 15:00:00 7.6 10 Oeste 32 Oeste 1.6 -- -- 76
2019-04-10 14:00:00 10.6 14 Oeste 28 Oeste 0 -- -- 62
2019-04-10 13:00:00 8.7 9 Noroeste 26 Oeste 0 -- -- 72
2019-04-10 12:00:00 8.4 9 Oeste 23 Oeste 0 -- -- 74
2019-04-10 11:00:00 7.2 10 Oeste 23 Oeste 0 -- -- 83
2019-04-10 10:00:00 5.7 9 Oeste 23 Oeste 0 -- -- 91
2019-04-10 09:00:00 -- -- -- -- -- -- -- -- --
2019-04-10 08:00:00 -- -- -- -- -- -- -- -- --
2019-04-10 07:00:00 -- -- -- -- -- -- -- -- --
2019-04-10 06:00:00 -- -- -- -- -- -- -- -- --
2019-04-10 05:00:00 -- -- -- -- -- -- -- -- --
2019-04-10 04:00:00 -- -- -- -- -- -- -- -- --
2019-04-10 03:00:00 -- -- -- -- -- -- -- -- --
2019-04-10 02:00:00 -- -- -- -- -- -- -- -- --
2019-04-10 01:00:00 -- -- -- -- -- -- -- -- --
2019-04-10 00:00:00 6.3 7 Sudoeste 23 Oeste 0 -- -- 87
2019-04-09 23:00:00 6.9 9 Oeste 23 Oeste 0 -- -- 83
2019-04-09 22:00:00 6.4 0 Calma 26 Oeste 0 -- -- 81
2019-04-09 21:00:00 -- -- -- -- -- -- -- -- --
2019-04-09 20:00:00 8.3 13 Oeste 41 Sudoeste 0 -- -- 77
2019-04-09 19:00:00 9.3 14 Oeste 44 Oeste 0 -- -- 71
2019-04-09 18:00:00 8.6 14 Oeste 35 Oeste 1 -- -- 91
2019-04-09 17:00:00 10 15 Oeste 43 Sudoeste 0 -- -- 66
2019-04-09 16:00:00 11.1 23 Oeste 43 Oeste 0 -- -- 66
2019-04-09 15:00:00 10.2 14 Oeste 42 Sudoeste 0 -- -- 73
2019-04-09 14:00:00 9.8 12 Oeste 37 Oeste 0 -- -- 69
2019-04-09 13:00:00 8.8 -- -- -- -- 0 -- -- --
2019-04-09 12:00:00 9.2 14 Oeste 38 Oeste 0 -- -- 76
2019-04-09 11:00:00 7.4 12 Oeste 35 Sudoeste 0 -- -- 83
2019-04-09 10:00:00 6.7 14 Oeste 35 Sudoeste 0 -- -- 89
2019-04-09 09:00:00 4.8 -- -- -- -- 0 -- -- 95
2019-04-09 08:00:00 3.8 6 Sudoeste 26 Sudoeste 0 -- -- 95
2019-04-09 07:00:00 4 9 Sudoeste 25 Sudoeste 0 -- -- 95
2019-04-09 06:00:00 4.3 8 Sudoeste 28 Oeste 0 -- -- 95
2019-04-09 05:00:00 4.9 9 Sudoeste 25 Oeste 0 -- -- 94
2019-04-09 04:00:00 5.6 9 Sudoeste 23 Oeste 0 -- -- 92
2019-04-09 03:00:00 5.9 6 Sudoeste 20 Oeste 0 -- -- 92
2019-04-09 02:00:00 5.9 -- -- -- -- 0 -- -- 95
2019-04-09 01:00:00 6.8 5 Sudoeste 19 Sudoeste 0 -- -- 94
2019-04-09 00:00:00 7.5 6 Sudoeste 19 Sudoeste 0 -- -- 98
2019-04-08 23:00:00 7.4 6 Sudoeste 17 Sudoeste 0 -- -- 97
2019-04-08 22:00:00 7.5 -- -- -- -- 8 -- -- 92
2019-04-08 21:00:00 9.8 5 Oeste 20 Sudoeste 0 -- -- 92
2019-04-08 20:00:00 10.1 6 Sudoeste 30 Sudoeste 0.2 -- -- 91
2019-04-08 19:00:00 10.8 10 Sudoeste 34 Sudoeste 0 -- -- 88
2019-04-08 18:00:00 11 8 Sudoeste 26 Oeste 0.6 -- -- 89
2019-04-08 17:00:00 11.3 10 Sudoeste 28 Sudoeste 0.4 -- -- 86
2019-04-08 16:00:00 -- -- -- -- -- -- -- -- --
2019-04-08 15:00:00 -- -- -- -- -- -- -- -- --
2019-04-08 14:00:00 -- -- -- -- -- -- -- -- --
2019-04-08 13:00:00 11.8 -- -- -- -- -- -- -- --
2019-04-08 12:00:00 11.7 14 Oeste 32 Oeste 0 -- -- 81
2019-04-08 11:00:00 -- -- -- -- -- -- -- -- --
2019-04-08 10:00:00 -- -- -- -- -- -- -- -- --
2019-04-08 09:00:00 -- -- -- -- -- -- -- -- --
2019-04-08 08:00:00 -- -- -- -- -- -- -- -- --
2019-04-08 07:00:00 -- -- -- -- -- -- -- -- --
2019-04-08 06:00:00 -- -- -- -- -- -- -- -- --
2019-04-08 05:00:00 7.5 9 Sudoeste 32 Oeste 0 -- -- 96
2019-04-08 04:00:00 8 12 Oeste 27 Sudoeste 0 -- -- 96
2019-04-08 03:00:00 8 10 Sudoeste 22 Sudoeste 0.2 -- -- 97
2019-04-08 02:00:00 8 -- -- -- -- -- -- -- --
2019-04-08 01:00:00 7.8 7 Sudoeste 20 Sudoeste 0 -- -- 95
2019-04-08 00:00:00 7.5 6 Sudoeste 17 Sudoeste 0 -- -- 94
2019-04-07 23:00:00 7.3 0 Calma 5 Oeste 0.2 -- -- 93
2019-04-07 22:00:00 7.4 2 Oeste 9 Oeste 0 -- -- 89
2019-04-07 21:00:00 8 5 Sudoeste 23 Oeste 0 -- -- 83
2019-04-07 20:00:00 8.9 10 Oeste 33 Oeste 0 -- -- 75
2019-04-07 19:00:00 9.7 11 Oeste 33 Oeste 0 -- -- 66
2019-04-07 18:00:00 10.4 14 Oeste 36 Sudoeste 0 -- -- 63
2019-04-07 17:00:00 11.3 17 Oeste 44 Sudoeste 0 -- -- 63
2019-04-07 16:00:00 10.9 14 Oeste 42 Oeste 0.2 -- -- 62
2019-04-07 15:00:00 10.6 17 Oeste 34 Oeste 0 -- -- 65
2019-04-07 14:00:00 9.3 13 Oeste 42 Oeste 0 -- -- 68
2019-04-07 13:00:00 7.5 12 Noroeste 36 Noroeste 0 -- -- 79
2019-04-07 12:00:00 6.7 13 Noroeste 31 Noroeste 0 -- -- 81
2019-04-07 11:00:00 5.3 12 Noroeste 28 Noroeste 0 -- -- 90
2019-04-07 10:00:00 4.3 8 Oeste 23 Oeste 0 -- -- 95
2019-04-07 09:00:00 3.6 8 Oeste 27 Oeste 0 -- -- 97
2019-04-07 08:00:00 3.5 8 Oeste 27 Sudoeste 0.8 -- -- 98
2019-04-07 07:00:00 3.6 8 Noroeste 36 Oeste 0.6 -- -- 97
2019-04-07 06:00:00 3.3 10 Oeste 32 Oeste 0.6 -- -- 96
2019-04-07 05:00:00 3.3 9 Oeste 30 Oeste 1.8 -- -- 96
2019-04-07 04:00:00 3.5 7 Oeste 30 Oeste 0.2 -- -- 92
2019-04-07 03:00:00 3.7 10 Oeste 32 Oeste 0 -- -- 89
2019-04-07 02:00:00 3.7 9 Sudoeste 27 Oeste 0 -- -- 90
2019-04-07 01:00:00 3.6 9 Sudoeste 29 Oeste 0 -- -- 90
2019-04-07 00:00:00 3.8 12 Sudoeste 32 Sudoeste 0 -- -- 90
2019-04-06 23:00:00 4.2 10 Sudoeste 31 Sudoeste 0 -- -- 86
2019-04-06 22:00:00 4 10 Sudoeste 32 Sudoeste 0 -- -- 88
2019-04-06 21:00:00 4.4 10 Sudoeste 27 Sudoeste 0 -- -- 85
2019-04-06 20:00:00 5.3 10 Sudoeste 33 Sudoeste 0 -- -- 81
2019-04-06 19:00:00 5.3 11 Sudoeste 34 Oeste 0.8 -- -- 82
2019-04-06 18:00:00 6.9 13 Sudoeste 42 Sudoeste 0 -- -- 76
2019-04-06 17:00:00 8.7 14 Oeste 52 Oeste 0 -- -- 72
2019-04-06 16:00:00 8.1 17 Oeste 44 Oeste 0 -- -- 76
2019-04-06 15:00:00 3.5 9 Sudoeste 48 Sudoeste 0.8 -- -- 88
2019-04-06 14:00:00 6.6 15 Sudoeste 38 Sur 0.2 -- -- 83
2019-04-06 13:00:00 5.8 15 Sudoeste 47 Sudoeste 0.4 -- -- 91
2019-04-06 12:00:00 5.9 13 Sudoeste 37 Oeste 0 -- -- 89
2019-04-06 11:00:00 4.6 12 Sudoeste 30 Oeste 0.4 -- -- 92
2019-04-06 10:00:00 4 10 Sudoeste 32 Sudoeste 0 -- -- 94
2019-04-06 09:00:00 3.3 12 Sudoeste 35 Oeste 0 -- -- 92
2019-04-06 08:00:00 2.6 10 Oeste 34 Oeste 0 -- -- 92
2019-04-06 07:00:00 2.5 12 Oeste 31 Oeste 0 -- -- 92
2019-04-06 06:00:00 2.6 14 Oeste 35 Oeste 0 -- -- 92
2019-04-06 05:00:00 2.3 13 Oeste 43 Oeste 0 -- -- 92
2019-04-06 04:00:00 2.6 13 Oeste 32 Sudoeste 0 -- -- 96
2019-04-06 03:00:00 2.2 10 Sudoeste 23 Sudoeste 0.2 -- -- 97
2019-04-06 02:00:00 2.1 4 Sudoeste 16 Oeste 0.2 -- -- 97
2019-04-06 01:00:00 1.4 4 Sudoeste 31 Oeste 1.2 -- -- 94
2019-04-06 00:00:00 2.1 6 Sudoeste 18 Sudoeste 0 -- -- 86
2019-04-05 23:00:00 2.2 7 Sudoeste 22 Oeste 0 -- -- 85
2019-04-05 22:00:00 3.1 7 Sudoeste 25 Oeste 0 -- -- 84
2019-04-05 21:00:00 3.7 4 Oeste 22 Oeste 0 -- -- 80
2019-04-05 20:00:00 4.5 8 Sudoeste 21 Sudoeste 0.2 -- -- 91
2019-04-05 19:00:00 4.9 10 Sudoeste 32 Sudoeste 0.2 -- -- 86
2019-04-05 18:00:00 6.5 13 Sudoeste 39 Sudoeste 0 -- -- 87
2019-04-05 17:00:00 2.7 12 Sudoeste 45 Oeste 4 -- -- 95
2019-04-05 16:00:00 6.9 13 Sudoeste 42 Sudoeste 0 -- -- 84
2019-04-05 15:00:00 6.2 19 Sudoeste 39 Sur 0 -- -- 83
2019-04-05 14:00:00 6 14 Sur 49 Sudoeste 0.2 -- -- 88
2019-04-05 13:00:00 6.8 13 Sudoeste 30 Sudoeste 0.4 -- -- 89
2019-04-05 12:00:00 6.4 8 Sudoeste 28 Sudoeste 0.6 -- -- 89
2019-04-05 11:00:00 7.5 10 Sudoeste 33 Sudoeste 0 -- -- 79
2019-04-05 10:00:00 6.4 15 Sudoeste 35 Sudoeste 0 -- -- 77
2019-04-05 09:00:00 5.3 10 Sudoeste 27 Sudoeste 0 -- -- 80
2019-04-05 08:00:00 4.6 6 Sudoeste 27 Sudoeste 0 -- -- 83
2019-04-05 07:00:00 4.4 8 Sudoeste 23 Sudoeste 0 -- -- 84
2019-04-05 06:00:00 4.2 9 Sudoeste 25 Sudoeste 0 -- -- 82
2019-04-05 05:00:00 4.5 11 Sur 27 Sudoeste 0 -- -- 76
2019-04-05 04:00:00 5.1 12 Sudoeste 27 Sur 0 -- -- 72
2019-04-05 03:00:00 5.3 8 Sudoeste 21 Sur 0 -- -- 65
2019-04-05 02:00:00 4.3 5 Sudoeste 14 Sur 0 -- -- 67
2019-04-05 01:00:00 5.1 6 Sudoeste 19 Sur 0 -- -- 65
2019-04-05 00:00:00 5 7 Sur 19 Sudoeste 0 -- -- 63
2019-04-04 23:00:00 3.4 3 Sur 7 Sur 0 -- -- 71
2019-04-04 22:00:00 5.6 2 Sur 5 Sur 0 -- -- 62
2019-04-04 21:00:00 9.2 0 Calma 13 Este 0 -- -- 49
2019-04-04 20:00:00 11.8 3 Este 12 Norte 0 -- -- 39
2019-04-04 19:00:00 13 6 Norte 16 Norte 0 -- -- 36
2019-04-04 18:00:00 13.6 5 Noroeste 18 Oeste 0 -- -- 34
2019-04-04 17:00:00 13.2 10 Noroeste 19 Oeste 0 -- -- 35
2019-04-04 16:00:00 12.4 6 Oeste 18 Noroeste 0 -- -- 37
2019-04-04 15:00:00 11.9 6 Sudoeste 17 Sur 0 -- -- 34
2019-04-04 14:00:00 9.8 7 Noroeste 15 Norte 0 -- -- 42
2019-04-04 13:00:00 8.8 5 Norte 15 Norte 0 -- -- 38
2019-04-04 12:00:00 7.4 4 Noroeste 15 Nordeste 0 -- -- 44
2019-04-04 11:00:00 6.3 5 Nordeste 15 Nordeste 0 -- -- 48
2019-04-04 10:00:00 3.5 5 Nordeste 10 Nordeste 0 -- -- 64
2019-04-04 09:00:00 -2.9 2 Sur 5 Sur 0 -- -- 95
2019-04-04 08:00:00 -3.7 3 Sur 8 Sudoeste 0 -- -- 93
2019-04-04 07:00:00 -- -- -- -- -- -- -- -- --
2019-04-04 06:00:00 -2.8 3 Sur 6 Sur 0 -- -- 91
2019-04-04 05:00:00 -2.2 3 Sur 6 Sur 0 -- -- 89
2019-04-04 04:00:00 -1.2 3 Sur 7 Norte 0 -- -- 85
2019-04-04 03:00:00 0 0 Calma 10 Norte 0 -- -- 82
2019-04-04 02:00:00 1.7 0 Calma 8 Noroeste 0 -- -- 76
2019-04-04 01:00:00 4.6 0 Calma 9 Noroeste 0 -- -- 64
2019-04-04 00:00:00 6.7 4 Noroeste 11 Noroeste 0 -- -- 54
2019-04-03 23:00:00 7.2 2 Noroeste 15 Noroeste 0 -- -- 57
2019-04-03 22:00:00 8.8 7 Noroeste 19 Noroeste 0 -- -- 55
2019-04-03 21:00:00 11.3 10 Oeste 37 Oeste 0 -- -- 48
2019-04-03 20:00:00 13.1 12 Noroeste 38 Oeste 0 -- -- 42
2019-04-03 19:00:00 15.4 16 Noroeste 40 Noroeste 0 -- -- 36
2019-04-03 18:00:00 16.7 18 Oeste 44 Oeste 0 -- -- 34
2019-04-03 17:00:00 17.3 15 Oeste 47 Oeste 0 -- -- 36
2019-04-03 16:00:00 15.9 9 Oeste 39 Oeste 0 -- -- 41
2019-04-03 15:00:00 15.9 14 Sudoeste 43 Oeste 0 -- -- 48
2019-04-03 14:00:00 16.2 15 Oeste 35 Oeste 0 -- -- 49
2019-04-03 13:00:00 14.9 16 Oeste 34 Oeste 0 -- -- 58
2019-04-03 12:00:00 14 13 Sudoeste 29 Oeste 0 -- -- 66
2019-04-03 11:00:00 12.3 13 Oeste 31 Oeste 0 -- -- 73
2019-04-03 10:00:00 9.7 9 Sudoeste 22 Sudoeste 0.2 -- -- 86
2019-04-03 09:00:00 6 8 Sudoeste 19 Sudoeste 0 -- -- 99
2019-04-03 08:00:00 4.4 6 Sur 16 Sudoeste 0 -- -- 97
2019-04-03 07:00:00 4.7 5 Sur 13 Sur 0 -- -- 97
2019-04-03 06:00:00 4.8 5 Sur 15 Sudoeste 0 -- -- 96
2019-04-03 05:00:00 5.5 -- -- -- -- 0 -- -- --
2019-04-03 04:00:00 5.4 6 Sur 11 Sur 0 -- -- 97
2019-04-03 03:00:00 5.6 6 Sur 10 Sur 0 -- -- 96
2019-04-03 02:00:00 5.8 5 Sur 9 Sur 0 -- -- 95
2019-04-03 01:00:00 6.4 -- -- -- -- 0 -- -- 95
2019-04-03 00:00:00 6.4 5 Sur 9 Sur 0 -- -- 94
2019-04-02 23:00:00 7.3 4 Sur 7 Sur 0 -- -- 88
2019-04-02 22:00:00 9.9 4 Norte 15 Noroeste 0 -- -- 82
2019-04-02 21:00:00 11.4 2 Noroeste 14 Noroeste 0 -- -- 77
2019-04-02 20:00:00 12.7 4 Noroeste 14 Noroeste 0 -- -- 78
2019-04-02 19:00:00 14 9 Sudoeste 22 Oeste 0.8 -- -- 76
2019-04-02 18:00:00 16.3 9 Sudoeste 20 Sudoeste 0 -- -- 60
2019-04-02 17:00:00 16.8 9 Oeste 20 Oeste 0 -- -- 57
2019-04-02 16:00:00 15.6 7 Sudoeste 25 Sudoeste 0 -- -- 57
2019-04-02 15:00:00 14.5 9 Sudoeste 21 Oeste 0 -- -- 64
2019-04-02 14:00:00 14.6 8 Oeste 21 Sudoeste 0 -- -- 67
2019-04-02 13:00:00 -- -- -- -- -- -- -- -- --
2019-04-02 12:00:00 11.1 -- -- -- -- -- -- -- --
2019-04-02 11:00:00 9.7 5 Sudoeste 15 Sudoeste 0 -- -- 93
2019-04-02 10:00:00 8.9 5 Sudoeste 12 Oeste 0 -- -- 96
2019-04-02 09:00:00 8.1 6 Sudoeste 14 Sudoeste 0 -- -- 98
2019-04-02 08:00:00 7.4 -- -- -- -- 0 -- -- --
2019-04-02 07:00:00 7.9 4 Sudoeste 14 Sur 0 -- -- 98
2019-04-02 06:00:00 8.1 6 Sudoeste 19 Sudoeste 0 -- -- 99
2019-04-02 05:00:00 8.1 8 Sudoeste 18 Sur 0 -- -- 99
2019-04-02 04:00:00 8 7 Sudoeste 17 Sudoeste 0 -- -- 99
2019-04-02 03:00:00 7.2 5 Sudoeste 12 Sur 0 -- -- 99
2019-04-02 02:00:00 6.5 -- -- -- -- 0 -- -- 97
2019-04-02 01:00:00 7.2 3 Sur 7 Sur 0 -- -- 97
2019-04-02 00:00:00 7.6 3 Sur 5 Sudoeste 0.2 -- -- 96
2019-04-01 23:00:00 8 2 Sudoeste 18 Sudoeste 2.2 -- -- 97
2019-04-01 22:00:00 6.8 -- -- -- -- 0 -- -- 94
2019-04-01 21:00:00 8.2 -- -- -- -- -- -- -- --
2019-04-01 20:00:00 10.7 0 Calma 3 Sudoeste 0 -- -- 82
2019-04-01 19:00:00 11.8 0 Calma 10 Noroeste 0 -- -- 75
2019-04-01 18:00:00 11.8 3 Oeste 13 Oeste 0 -- -- 79
2019-04-01 17:00:00 10.7 -- -- -- -- 0 -- -- --
2019-04-01 16:00:00 -- -- -- -- -- -- -- -- --
2019-04-01 15:00:00 -- -- -- -- -- -- -- -- --
2019-04-01 14:00:00 -- -- -- -- -- -- -- -- --
2019-04-01 13:00:00 -- -- -- -- -- -- -- -- --
2019-04-01 12:00:00 -- -- -- -- -- -- -- -- --
2019-04-01 11:00:00 -- -- -- -- -- -- -- -- --
2019-04-01 10:00:00 -- -- -- -- -- -- -- -- --
2019-04-01 09:00:00 -- -- -- -- -- -- -- -- --
2019-04-01 08:00:00 -- -- -- -- -- -- -- -- --
2019-04-01 07:00:00 -- -- -- -- -- -- -- -- --
2019-04-01 06:00:00 -- -- -- -- -- -- -- -- --
2019-04-01 05:00:00 -- -- -- -- -- -- -- -- --
2019-04-01 04:00:00 -- -- -- -- -- -- -- -- --
2019-04-01 03:00:00 -- -- -- -- -- -- -- -- --
2019-04-01 02:00:00 7.3 3 Sudeste 15 Sudeste 0 -- -- 99
2019-04-01 01:00:00 7.3 5 Sudeste 14 Este 0 -- -- 99
2019-04-01 00:00:00 7.3 3 Sudeste 18 Este 0.2 -- -- 99
2019-03-31 23:00:00 7.4 5 Este 18 Este 0.2 -- -- 99
2019-03-31 22:00:00 7.2 8 Este 19 Nordeste 0 -- -- 98
2019-03-31 21:00:00 7.3 6 Este 21 Sudeste 0.2 -- -- 98
2019-03-31 20:00:00 7.4 8 Este 22 Nordeste 0 -- -- 97
2019-03-31 19:00:00 7.7 8 Este 21 Sudeste 0 -- -- 96
2019-03-31 18:00:00 7.7 9 Este 19 Este 0 -- -- 95
2019-03-31 17:00:00 7.4 6 Este 19 Este 0 -- -- 96
2019-03-31 16:00:00 7.4 8 Este 20 Este 0.2 -- -- 95
2019-03-31 15:00:00 7.1 7 Este 22 Este 0 -- -- 96
2019-03-31 14:00:00 6.9 10 Este 19 Este 0 -- -- 96
2019-03-31 13:00:00 6.3 5 Sudeste 21 Este 0.2 -- -- 97
2019-03-31 12:00:00 6.1 9 Este 22 Este 0.2 -- -- 97
2019-03-31 11:00:00 6 6 Sudeste 21 Este 1.2 -- -- 97
2019-03-31 10:00:00 4.8 7 Sudeste 23 Sudeste 2.4 -- -- 96
2019-03-31 09:00:00 4.8 7 Este 21 Sudeste 2 -- -- 96
2019-03-31 08:00:00 4.9 5 Sudeste 21 Sudeste 1.2 -- -- 96
2019-03-31 07:00:00 4.7 3 Sudeste 19 Sudeste 1.2 -- -- 94
2019-03-31 06:00:00 5.9 5 Sudeste 18 Sudeste 0.4 -- -- 94
2019-03-31 05:00:00 5.8 4 Sudeste 21 Este 0 -- -- 93
2019-03-31 03:00:00 7.5 6 Sudeste 22 Sudeste 0 -- -- 82
2019-03-31 01:00:00 7.3 7 Sudeste 23 Este 0 -- -- 85
2019-03-31 00:00:00 7.3 13 Sudeste 28 Sudeste 0 -- -- 86
2019-03-30 23:00:00 8.3 9 Sudeste 25 Sudeste 0 -- -- 74
2019-03-30 22:00:00 9.3 8 Sudeste 21 Sudeste 0 -- -- 57
2019-03-30 21:00:00 10.9 10 Sudeste 23 Sudeste 0 -- -- 57
2019-03-30 20:00:00 12 8 Sudeste 23 Sudeste 0 -- -- 56
2019-03-30 19:00:00 13.9 12 Sudeste 30 Sudeste 0 -- -- 47
2019-03-30 18:00:00 15.3 12 Sudeste 28 Sudeste 0 -- -- 43
2019-03-30 17:00:00 16 12 Este 37 Este 0 -- -- 42
2019-03-30 16:00:00 16.4 10 Sudeste 31 Este 0 -- -- 42
2019-03-30 15:00:00 15.3 12 Este 29 Este 0 -- -- 47
2019-03-30 14:00:00 14.9 11 Sudeste 33 Este 0 -- -- 48
2019-03-30 13:00:00 13.2 14 Este 30 Este 0 -- -- 51
2019-03-30 12:00:00 12.3 12 Este 32 Sudeste 0 -- -- 56
2019-03-30 11:00:00 10.5 12 Sudeste 28 Sudeste 0 -- -- 61
2019-03-30 10:00:00 8.2 11 Sudeste 27 Este 0 -- -- 74
2019-03-30 09:00:00 5.7 7 Sudeste 21 Sudeste 0 -- -- 84
2019-03-30 08:00:00 3.3 3 Este 15 Sudeste 0 -- -- 92
2019-03-30 07:00:00 3.1 4 Sudeste 10 Sudeste 0 -- -- 88
2019-03-30 06:00:00 4 3 Este 13 Nordeste 0 -- -- 82
2019-03-30 05:00:00 4.7 3 Este 17 Sudeste 0 -- -- 79
2019-03-30 04:00:00 5.4 6 Sudeste 24 Sudeste 0 -- -- 74
2019-03-30 03:00:00 5.7 8 Sudeste 22 Sudeste 0 -- -- 72
2019-03-30 02:00:00 5.8 7 Sudeste 23 Sudeste 0 -- -- 68
2019-03-30 01:00:00 6 8 Sudeste 25 Sudeste 0 -- -- 65
2019-03-30 00:00:00 6 10 Sudeste 26 Sudeste 0 -- -- 67
2019-03-29 23:00:00 6.7 10 Sudeste 23 Sudeste 0 -- -- 70
2019-03-29 22:00:00 7.7 9 Sudeste 20 Sudeste 0 -- -- 64
2019-03-29 21:00:00 8.3 8 Sudeste 20 Este 0 -- -- 61
2019-03-29 20:00:00 9.6 8 Sudeste 23 Este 0 -- -- 56
2019-03-29 19:00:00 11.5 13 Sudeste 26 Sudeste 0 -- -- 49
2019-03-29 18:00:00 13.5 10 Sudeste 28 Sudeste 0 -- -- 43
2019-03-29 17:00:00 13.7 12 Sudeste 33 Sudeste 0 -- -- 45
2019-03-29 16:00:00 14 12 Sudeste 29 Sudeste 0 -- -- 42
2019-03-29 15:00:00 13.9 12 Sudeste 27 Nordeste 0 -- -- 44
2019-03-29 14:00:00 12.8 13 Sudeste 34 Sudeste 0 -- -- 47
2019-03-29 13:00:00 12.9 14 Sudeste 31 Sudeste 0 -- -- 46
2019-03-29 12:00:00 12.3 15 Sudeste 37 Este 0 -- -- 48
2019-03-29 11:00:00 11.2 13 Sudeste 32 Sur 0 -- -- 48
2019-03-29 10:00:00 9 10 Sudeste 27 Sudeste 0 -- -- 57
2019-03-29 09:00:00 6.3 10 Sudeste 21 Sudeste 0 -- -- 69
2019-03-29 08:00:00 2.2 3 Sudeste 13 Sudeste 0 -- -- 82
2019-03-29 07:00:00 1.1 6 Sudeste 16 Sudeste 0 -- -- 86
2019-03-29 06:00:00 0.9 3 Sudeste 8 Sudeste 0 -- -- 82
2019-03-29 05:00:00 1.3 4 Sur 14 Sudeste 0 -- -- 78
2019-03-29 04:00:00 1.6 0 Calma 9 Sudeste 0 -- -- 70
2019-03-29 03:00:00 1.6 3 Sudeste 13 Sur 0 -- -- 71
2019-03-29 02:00:00 0.3 3 Sudeste 8 Este 0 -- -- 62
2019-03-29 01:00:00 2.2 0 Calma 4 Sudeste 0 -- -- 54
2019-03-29 00:00:00 4.8 2 Sudeste 13 Sur 0 -- -- 49
2019-03-28 23:00:00 6 4 Sudeste 14 Sudeste 0 -- -- 43
2019-03-28 22:00:00 6.6 4 Sudeste 17 Sur 0 -- -- 41
2019-03-28 21:00:00 7.1 4 Sudeste 14 Sur 0 -- -- 38
2019-03-28 20:00:00 9.6 3 Sudeste 13 Sudeste 0 -- -- 36
2019-03-28 19:00:00 12.9 7 Sudeste 21 Este 0 -- -- 31
2019-03-28 18:00:00 14.7 8 Sudeste 29 Este 0 -- -- 27
2019-03-28 17:00:00 15.4 10 Sudeste 28 Sudeste 0 -- -- 26
2019-03-28 16:00:00 15.2 10 Sudeste 36 Este 0 -- -- 27
2019-03-28 15:00:00 14.9 12 Este 27 Nordeste 0 -- -- 27
2019-03-28 14:00:00 14.9 14 Este 31 Este 0 -- -- 26
2019-03-28 13:00:00 14.7 10 Sudeste 25 Sudeste 0 -- -- 29
2019-03-28 12:00:00 13.2 12 Sudeste 26 Este 0 -- -- 30
2019-03-28 11:00:00 11.2 8 Sudeste 26 Este 0 -- -- 35
2019-03-28 10:00:00 8.8 10 Este 19 Este 0 -- -- 36
2019-03-28 09:00:00 5 4 Sudeste 14 Este 0 -- -- 59
2019-03-28 08:00:00 -3.8 0 Calma 4 Norte 0 -- -- 75
2019-03-28 07:00:00 -4.5 0 Calma 5 Sur 0 -- -- 75
2019-03-28 06:00:00 -3.8 2 Sur 6 Sur 0 -- -- 75
2019-03-28 05:00:00 -3.8 2 Sur 5 Sur 0 -- -- 77
2019-03-28 04:00:00 -3.1 0 Calma 5 Sudeste 0 -- -- 73
2019-03-28 03:00:00 -1.2 2 Sur 5 Sur 0 -- -- 70
2019-03-28 02:00:00 1 0 Calma 5 Sur 0 -- -- 65
2019-03-28 01:00:00 3 0 Calma 12 Sudeste 0 -- -- 64
2019-03-28 00:00:00 2 3 Sudeste 9 Sur 0 -- -- 74
2019-03-27 23:00:00 0.6 2 Sur 6 Sur 0 -- -- 61
2019-03-27 22:00:00 2.6 0 Calma 3 Sur 0 -- -- 51
2019-03-27 21:00:00 5.4 0 Calma 6 Sudeste 0 -- -- 42
2019-03-27 20:00:00 9.5 2 Sudeste 16 Sudeste 0 -- -- 33
2019-03-27 19:00:00 12.5 8 Sudeste 21 Este 0 -- -- 28
2019-03-27 18:00:00 13.8 9 Este 23 Este 0 -- -- 27
2019-03-27 17:00:00 14.4 9 Este 24 Este 0 -- -- 29
2019-03-27 16:00:00 14.1 12 Este 29 Este 0 -- -- 31
2019-03-27 15:00:00 14.2 9 Sudeste 32 Este 0 -- -- 31
2019-03-27 14:00:00 13.3 14 Este 29 Este 0 -- -- 28
2019-03-27 13:00:00 12.6 10 Sudeste 26 Sudeste 0 -- -- 34
2019-03-27 12:00:00 10.9 12 Sudeste 26 Este 0 -- -- 40
2019-03-27 11:00:00 10 10 Sudeste 24 Sudeste 0 -- -- 38
2019-03-27 10:00:00 8.1 8 Sudeste 21 Sudeste 0 -- -- 50
2019-03-27 09:00:00 4.5 5 Este 14 Este 0 -- -- 74
2019-03-27 08:00:00 0.1 3 Sudeste 8 Este 0 -- -- 92
2019-03-27 07:00:00 -0.2 2 Sudeste 8 Sudeste 0 -- -- 90
2019-03-27 06:00:00 0.1 2 Sudeste 6 Sudeste 0 -- -- 92
2019-03-27 05:00:00 1.1 0 Calma 13 Sudeste 0 -- -- 85
2019-03-27 04:00:00 2.5 3 Sudeste 23 Sudeste 0 -- -- 83
2019-03-27 03:00:00 3.4 12 Sudeste 30 Sudeste 0 -- -- 86
2019-03-27 02:00:00 3.9 8 Sudeste 35 Este 0 -- -- 85
2019-03-27 01:00:00 4 9 Sudeste 31 Este 0 -- -- 86
2019-03-27 00:00:00 5.8 9 Este 31 Nordeste 0 -- -- 86
2019-03-26 23:00:00 6.9 6 Sudeste 24 Este 0 -- -- 81
2019-03-26 22:00:00 8.2 8 Sudeste 21 Sudeste 0 -- -- 75
2019-03-26 21:00:00 9.5 6 Sudeste 20 Sudeste 0 -- -- 70
2019-03-26 20:00:00 11.3 10 Sudeste 27 Nordeste 0 -- -- 47
2019-03-26 19:00:00 13.2 10 Sudeste 36 Este 0 -- -- 38
2019-03-26 18:00:00 14.7 14 Este 44 Este 0 -- -- 39
2019-03-26 17:00:00 15.9 14 Este 40 Sudeste 0 -- -- 39
2019-03-26 16:00:00 16.2 17 Este 40 Nordeste 0 -- -- 40
2019-03-26 15:00:00 16.1 19 Este 42 Este 0 -- -- 38
2019-03-26 14:00:00 16 15 Este 40 Este 0 -- -- 41
2019-03-26 13:00:00 14.4 17 Este 38 Nordeste 0 -- -- 45
2019-03-26 12:00:00 14 15 Sudeste 39 Sudeste 0 -- -- 45
2019-03-26 11:00:00 12.2 14 Este 34 Este 0 -- -- 44
2019-03-26 10:00:00 11.2 10 Sudeste 26 Sudeste 0 -- -- 42
2019-03-26 09:00:00 7.8 8 Este 29 Sudeste 0 -- -- 53
2019-03-26 08:00:00 5.2 8 Este 21 Este 0 -- -- 61
2019-03-26 07:00:00 4.3 3 Sudeste 13 Sur 0 -- -- 65
2019-03-26 06:00:00 4.5 5 Sudeste 13 Sudeste 0 -- -- 65
2019-03-26 05:00:00 4.1 4 Sudeste 13 Sudeste 0 -- -- 66
2019-03-26 04:00:00 1.7 3 Sur 6 Sur 0 -- -- 76
2019-03-26 03:00:00 -0.5 0 Calma 3 Sur 0 -- -- 77
2019-03-26 02:00:00 0.5 3 Sur 5 Sur 0 -- -- 73
2019-03-26 01:00:00 1.4 2 Sur 3 Sur 0 -- -- 69
2019-03-26 00:00:00 2.6 2 Sur 8 Sur 0 -- -- 63
2019-03-25 23:00:00 2.7 4 Sur 7 Sur 0 -- -- 61
2019-03-25 22:00:00 3.6 3 Sur 8 Sur 0 -- -- 57
2019-03-25 21:00:00 5.9 4 Sur 8 Sur 0 -- -- 50
2019-03-25 20:00:00 10.9 3 Sur 6 Este 0 -- -- 38
2019-03-25 19:00:00 16.3 3 Este 20 Este 0 -- -- 28
2019-03-25 18:00:00 17.6 4 Este 23 Sudeste 0 -- -- 27
2019-03-25 17:00:00 18.5 9 Este 23 Nordeste 0 -- -- 26
2019-03-25 16:00:00 18.6 8 Este 21 Este 0 -- -- 24
2019-03-25 15:00:00 18.6 6 Este 23 Nordeste 0 -- -- 27
2019-03-25 14:00:00 17.8 9 Este 28 Este 0 -- -- 28
2019-03-25 13:00:00 17.1 8 Sudeste 24 Sudeste 0 -- -- 29
2019-03-25 12:00:00 16.2 10 Este 29 Este 0 -- -- 32
2019-03-25 11:00:00 15.2 8 Este 24 Este 0 -- -- 33
2019-03-25 10:00:00 12.5 8 Este 16 Este 0 -- -- 38
2019-03-25 09:00:00 5.2 5 Este 15 Este 0 -- -- 62
2019-03-25 08:00:00 -2.6 3 Sur 8 Sur 0 -- -- 93
2019-03-25 07:00:00 -3.2 3 Sur 6 Sur 0 -- -- 90
2019-03-25 06:00:00 -2.8 3 Sur 6 Sur 0 -- -- 89
2019-03-25 05:00:00 -2.3 4 Sur 6 Sur 0 -- -- 88
2019-03-25 04:00:00 -1.8 3 Sur 6 Sur 0 -- -- 86
2019-03-25 03:00:00 -1.1 3 Sur 7 Sur 0 -- -- 84
2019-03-25 02:00:00 -0.5 4 Sur 7 Sur 0 -- -- 83
2019-03-25 01:00:00 0.3 3 Sur 6 Sur 0 -- -- 80
2019-03-25 00:00:00 1.5 3 Sur 5 Sur 0 -- -- 76